Time;durP1;ratioP1;P1;durP2;ratioP2;P2;SDS_P1;SDS_P2;PMS_P1;PMS_P2;Temp;Humidity;BMP_temperature;BMP_pressure;BME280_temperature;BME280_humidity;BME280_pressure;Samples;Min_cycle;Max_cycle;Signal;HPM_P1;HPM_P2
2020/12/17 00:00:25;;;;;;;16.75;7.53;;;2.20;91.70;;;;;;5054056;28;20060;-70
2020/12/17 00:02:50;;;;;;;18.60;8.38;;;2.20;91.80;;;;;;5054130;28;20385;-70
2020/12/17 00:05:17;;;;;;;29.27;15.65;;;2.20;91.70;;;;;;5054189;28;20036;-71
2020/12/17 00:07:43;;;;;;;27.38;14.80;;;2.20;91.50;;;;;;5053554;28;20028;-74
2020/12/17 00:10:11;;;;;;;26.58;13.95;;;2.10;91.40;;;;;;5053838;28;20094;-70
2020/12/17 00:12:39;;;;;;;20.77;11.88;;;2.00;91.50;;;;;;5053925;28;20040;-72
2020/12/17 00:15:06;;;;;;;24.83;13.43;;;2.10;91.60;;;;;;5052218;28;20390;-72
2020/12/17 00:17:38;;;;;;;25.55;14.82;;;2.10;91.50;;;;;;5053735;28;20021;-72
2020/12/17 00:20:05;;;;;;;23.42;14.07;;;2.10;91.60;;;;;;5052181;28;20079;-73
2020/12/17 00:22:34;;;;;;;24.92;14.20;;;2.10;91.60;;;;;;5053801;28;20029;-72
2020/12/17 00:25:02;;;;;;;27.55;14.38;;;2.20;91.70;;;;;;5052100;28;20044;-72
2020/12/17 00:27:28;;;;;;;22.70;12.52;;;2.20;91.60;;;;;;5051423;28;20021;-72
2020/12/17 00:29:53;;;;;;;24.75;12.80;;;2.10;91.40;;;;;;5052508;28;20395;-72
2020/12/17 00:32:19;;;;;;;31.50;17.10;;;2.10;91.50;;;;;;5052240;28;20467;-72
2020/12/17 00:34:45;;;;;;;30.90;17.05;;;2.20;91.60;;;;;;5053427;28;20100;-73
2020/12/17 00:37:10;;;;;;;31.63;17.10;;;2.20;91.50;;;;;;5053225;28;20029;-72
2020/12/17 00:39:36;;;;;;;25.13;13.82;;;2.10;91.40;;;;;;5052084;28;20494;-72
2020/12/17 00:42:05;;;;;;;23.15;12.38;;;2.10;91.50;;;;;;5051650;28;20029;-72
2020/12/17 00:44:31;;;;;;;26.77;12.50;;;2.20;91.50;;;;;;5051956;28;20078;-72
2020/12/17 00:46:57;;;;;;;21.35;10.45;;;2.20;91.60;;;;;;5053321;28;20422;-72
2020/12/17 00:49:23;;;;;;;18.05;9.80;;;2.20;91.60;;;;;;5053146;28;20025;-72
2020/12/17 00:51:49;;;;;;;17.05;8.73;;;2.30;91.60;;;;;;5052915;28;20356;-72
2020/12/17 00:54:14;;;;;;;19.42;9.95;;;2.30;91.80;;;;;;5053070;28;20108;-72
2020/12/17 00:56:46;;;;;;;18.48;9.15;;;2.30;91.50;;;;;;5053053;28;20052;-72
2020/12/17 00:59:13;;;;;;;21.48;10.63;;;2.30;91.50;;;;;;5053164;28;20021;-73
2020/12/17 01:01:39;;;;;;;21.60;9.82;;;2.30;91.60;;;;;;5052891;28;20072;-71
2020/12/17 01:04:05;;;;;;;16.83;9.07;;;2.30;91.60;;;;;;5052914;28;20036;-72
2020/12/17 01:06:31;;;;;;;17.92;9.27;;;2.30;91.50;;;;;;5052841;28;20029;-72
2020/12/17 01:08:57;;;;;;;19.85;8.85;;;2.40;91.50;;;;;;5051596;28;20057;-72
2020/12/17 01:11:30;;;;;;;17.15;9.18;;;2.30;91.20;;;;;;5052583;28;20097;-72
2020/12/17 01:13:56;;;;;;;19.83;10.77;;;2.30;91.30;;;;;;5052924;28;20467;-73
2020/12/17 01:16:22;;;;;;;17.13;8.95;;;2.40;91.40;;;;;;5051646;28;20029;-73
2020/12/17 01:18:48;;;;;;;20.92;10.55;;;2.40;91.30;;;;;;5045230;28;20078;-73
2020/12/17 01:21:15;;;;;;;22.15;10.32;;;2.30;91.20;;;;;;5046747;28;20459;-73
2020/12/17 01:23:41;;;;;;;20.00;10.00;;;2.30;91.20;;;;;;5036751;28;20034;-73
2020/12/17 01:26:08;;;;;;;19.45;10.63;;;2.30;91.30;;;;;;5052982;28;20371;-72
2020/12/17 01:28:35;;;;;;;21.20;10.13;;;2.30;91.40;;;;;;5052854;28;20033;-73
2020/12/17 01:31:08;;;;;;;18.15;9.13;;;2.40;91.40;;;;;;5051488;28;20028;-72
2020/12/17 01:33:33;;;;;;;17.77;8.10;;;2.40;91.30;;;;;;5051575;28;20040;-73
2020/12/17 01:36:04;;;;;;;16.27;8.25;;;2.40;91.40;;;;;;5051259;28;20033;-73
2020/12/17 01:38:30;;;;;;;14.93;7.53;;;2.40;91.20;;;;;;5040332;28;20112;-72
2020/12/17 01:40:56;;;;;;;15.23;6.60;;;2.40;91.20;;;;;;5056919;28;20025;-73
2020/12/17 01:43:22;;;;;;;12.45;6.72;;;2.40;91.20;;;;;;5055516;28;20037;-72
2020/12/17 01:45:48;;;;;;;15.15;6.95;;;2.40;91.20;;;;;;5056586;28;20082;-73
2020/12/17 01:48:17;;;;;;;14.68;6.35;;;2.50;91.20;;;;;;5061243;28;20025;-72
2020/12/17 01:50:47;;;;;;;15.77;7.25;;;2.40;91.10;;;;;;5067603;28;20040;-71
2020/12/17 01:53:13;;;;;;;15.05;7.47;;;2.40;91.20;;;;;;5061832;28;20036;-72
2020/12/17 01:55:40;;;;;;;15.50;7.85;;;2.40;91.40;;;;;;5057085;28;20108;-72
2020/12/17 01:58:10;;;;;;;18.88;9.27;;;2.50;91.50;;;;;;5056484;28;20386;-73
2020/12/17 02:00:37;;;;;;;20.63;10.73;;;2.60;91.40;;;;;;5056916;28;20079;-72
2020/12/17 02:03:04;;;;;;;18.00;10.10;;;2.60;91.40;;;;;;5055255;28;20044;-72
2020/12/17 02:05:31;;;;;;;20.75;11.32;;;2.70;91.40;;;;;;5055957;28;20036;-74
2020/12/17 02:07:59;;;;;;;19.55;10.90;;;2.70;91.30;;;;;;5051149;28;20395;-72
2020/12/17 02:10:25;;;;;;;22.33;10.82;;;2.70;91.10;;;;;;5053104;28;20383;-73
2020/12/17 02:12:51;;;;;;;23.55;10.80;;;2.60;91.00;;;;;;5054782;28;20029;-73
2020/12/17 02:15:19;;;;;;;20.42;10.32;;;2.60;91.00;;;;;;5055807;28;20032;-73
2020/12/17 02:17:45;;;;;;;22.92;11.35;;;2.60;91.20;;;;;;5055739;28;20021;-73
2020/12/17 02:20:12;;;;;;;29.92;14.32;;;2.60;91.20;;;;;;5056109;28;20032;-73
2020/12/17 02:22:38;;;;;;;43.22;18.00;;;2.60;91.10;;;;;;5055714;28;20086;-73
2020/12/17 02:25:10;;;;;;;69.15;24.42;;;2.50;90.90;;;;;;5056025;28;20446;-72
2020/12/17 02:27:37;;;;;;;89.07;24.85;;;2.50;90.80;;;;;;5055715;28;20380;-72
2020/12/17 02:30:05;;;;;;;105.32;24.10;;;2.40;90.80;;;;;;5055530;28;20021;-73
2020/12/17 02:32:31;;;;;;;122.95;26.90;;;2.30;90.70;;;;;;5054172;28;20053;-74
2020/12/17 02:34:57;;;;;;;155.57;31.10;;;2.30;90.90;;;;;;5055840;28;20477;-74
2020/12/17 02:37:22;;;;;;;114.22;25.45;;;2.30;90.90;;;;;;5053709;28;20025;-74
2020/12/17 02:39:48;;;;;;;44.33;14.40;;;2.30;90.90;;;;;;5055132;28;20047;-74
2020/12/17 02:42:14;;;;;;;23.10;10.15;;;2.30;90.90;;;;;;5055527;28;20033;-74
2020/12/17 02:44:40;;;;;;;23.42;10.88;;;2.30;90.90;;;;;;5055380;28;20029;-74
2020/12/17 02:47:06;;;;;;;20.00;8.90;;;2.30;90.90;;;;;;5055337;28;20032;-73
2020/12/17 02:49:31;;;;;;;18.80;8.90;;;2.20;90.80;;;;;;5055409;28;20422;-73
2020/12/17 02:51:57;;;;;;;21.50;9.95;;;2.20;90.90;;;;;;5054757;28;20029;-73
2020/12/17 02:54:23;;;;;;;21.60;9.80;;;2.20;90.90;;;;;;5055357;28;20036;-74
2020/12/17 02:56:48;;;;;;;21.50;10.10;;;2.20;90.90;;;;;;5055092;28;20056;-74
2020/12/17 02:59:14;;;;;;;19.48;8.40;;;2.20;90.90;;;;;;5055590;28;20055;-74
2020/12/17 03:01:40;;;;;;;15.50;7.65;;;2.20;90.90;;;;;;5054921;28;20052;-74
2020/12/17 03:04:05;;;;;;;16.25;7.43;;;2.10;90.90;;;;;;5053818;28;20029;-73
2020/12/17 03:06:31;;;;;;;18.42;7.70;;;2.10;90.90;;;;;;5053691;28;20394;-73
2020/12/17 03:08:57;;;;;;;20.58;8.40;;;2.20;91.00;;;;;;5055119;28;20065;-74
2020/12/17 03:11:23;;;;;;;20.67;8.82;;;2.10;91.00;;;;;;5055379;28;20037;-73
2020/12/17 03:13:48;;;;;;;20.55;9.35;;;2.10;90.80;;;;;;5053201;28;20038;-73
2020/12/17 03:16:14;;;;;;;32.15;12.07;;;2.00;90.80;;;;;;5054735;28;20017;-73
2020/12/17 03:18:40;;;;;;;44.97;16.77;;;2.00;90.80;;;;;;5054850;28;20040;-73
2020/12/17 03:21:05;;;;;;;64.07;23.52;;;2.00;91.00;;;;;;5055159;28;20031;-74
2020/12/17 03:23:31;;;;;;;78.95;25.75;;;2.00;90.90;;;;;;5054596;28;20044;-74
2020/12/17 03:25:57;;;;;;;83.90;26.27;;;1.90;90.90;;;;;;5053331;28;20467;-74
2020/12/17 03:28:22;;;;;;;58.13;20.92;;;1.90;91.20;;;;;;5054708;28;20104;-74
2020/12/17 03:30:48;;;;;;;70.53;23.90;;;2.00;91.20;;;;;;5054164;28;20028;-74
2020/12/17 03:33:14;;;;;;;74.47;25.13;;;2.00;91.10;;;;;;5054638;28;20102;-74
2020/12/17 03:35:40;;;;;;;129.30;42.83;;;2.00;91.20;;;;;;5054663;28;20033;-74
2020/12/17 03:38:05;;;;;;;85.07;28.95;;;2.00;91.40;;;;;;5052907;28;20020;-74
2020/12/17 03:40:31;;;;;;;16.63;7.45;;;2.10;91.50;;;;;;5054518;28;20021;-72
2020/12/17 03:42:57;;;;;;;14.45;6.65;;;2.10;91.30;;;;;;5054499;28;20107;-73
2020/12/17 03:45:23;;;;;;;14.45;6.80;;;2.10;91.30;;;;;;5055154;28;20075;-73
2020/12/17 03:47:49;;;;;;;12.77;6.13;;;2.10;91.20;;;;;;5054989;28;20025;-73
2020/12/17 03:50:15;;;;;;;12.77;6.13;;;2.20;91.00;;;;;;5053142;28;20017;-73
2020/12/17 03:52:40;;;;;;;11.02;4.95;;;2.10;90.80;;;;;;5053415;28;20052;-73
2020/12/17 03:55:06;;;;;;;15.82;7.60;;;2.00;90.70;;;;;;5054987;28;20040;-73
2020/12/17 03:57:32;;;;;;;16.58;6.07;;;2.00;90.60;;;;;;5055556;28;20033;-74
2020/12/17 03:59:58;;;;;;;17.42;7.28;;;1.90;90.60;;;;;;5053296;28;20017;-74
2020/12/17 04:02:24;;;;;;;16.90;7.40;;;1.90;90.70;;;;;;5053526;28;20052;-72
2020/12/17 04:04:50;;;;;;;18.58;8.60;;;1.80;90.80;;;;;;5054868;28;20483;-73
2020/12/17 04:07:16;;;;;;;16.67;7.30;;;1.80;90.80;;;;;;5052974;28;20481;-73
2020/12/17 04:09:42;;;;;;;17.23;7.60;;;1.70;91.00;;;;;;5052623;28;20057;-73
2020/12/17 04:12:08;;;;;;;17.02;7.57;;;1.80;91.10;;;;;;5053780;28;20126;-73
2020/12/17 04:14:34;;;;;;;27.80;12.48;;;1.80;91.10;;;;;;5053770;28;20028;-73
2020/12/17 04:17:01;;;;;;;23.63;8.68;;;1.80;91.30;;;;;;5053781;28;20037;-73
2020/12/17 04:19:26;;;;;;;15.63;7.28;;;1.80;91.30;;;;;;5053836;28;20021;-73
2020/12/17 04:21:52;;;;;;;12.88;6.45;;;1.80;91.50;;;;;;5053354;28;20035;-73
2020/12/17 04:24:18;;;;;;;18.75;6.95;;;1.90;91.50;;;;;;5052550;28;20025;-72
2020/12/17 04:26:51;;;;;;;13.60;6.10;;;2.00;91.30;;;;;;5053500;28;20456;-73
2020/12/17 04:29:18;;;;;;;13.10;6.30;;;2.00;91.20;;;;;;5040468;28;20017;-73
2020/12/17 04:31:44;;;;;;;15.77;6.45;;;1.90;91.20;;;;;;5051738;28;20040;-73
2020/12/17 04:34:10;;;;;;;16.45;5.88;;;1.90;91.20;;;;;;5053513;28;20029;-73
2020/12/17 04:36:36;;;;;;;11.88;5.93;;;1.90;91.40;;;;;;5052147;28;20029;-73
2020/12/17 04:39:04;;;;;;;13.88;6.05;;;2.00;91.40;;;;;;5053367;28;20036;-72
2020/12/17 04:41:32;;;;;;;12.45;5.20;;;2.00;91.40;;;;;;5053207;28;20067;-73
2020/12/17 04:43:59;;;;;;;13.45;6.20;;;2.10;91.50;;;;;;5053192;28;20098;-73
2020/12/17 04:46:29;;;;;;;12.30;5.85;;;2.10;91.50;;;;;;5051929;28;20021;-74
2020/12/17 04:48:57;;;;;;;12.52;6.00;;;2.10;91.40;;;;;;5053387;28;20070;-73
2020/12/17 04:51:25;;;;;;;13.25;6.70;;;2.10;91.40;;;;;;5053004;28;20048;-72
2020/12/17 04:53:51;;;;;;;16.45;7.35;;;2.00;91.20;;;;;;5051536;28;20024;-74
2020/12/17 04:56:18;;;;;;;69.53;23.88;;;2.10;91.50;;;;;;5051411;28;20021;-74
2020/12/17 04:58:46;;;;;;;60.60;21.13;;;2.10;91.50;;;;;;5051825;28;20467;-74
2020/12/17 05:01:18;;;;;;;71.93;23.70;;;2.10;91.30;;;;;;5051542;28;20052;-74
2020/12/17 05:03:48;;;;;;;64.50;23.13;;;2.00;91.20;;;;;;5037923;28;20044;-73
2020/12/17 05:06:24;;;;;;;66.45;21.85;;;2.00;91.30;;;;;;5051486;28;20068;-73
2020/12/17 05:08:51;;;;;;;42.00;17.27;;;2.10;91.60;;;;;;5039521;28;20037;-73
2020/12/17 05:11:17;;;;;;;33.40;14.18;;;2.10;91.80;;;;;;5053232;28;20471;-73
2020/12/17 05:13:43;;;;;;;21.10;10.73;;;2.10;91.80;;;;;;5052382;28;20017;-80
2020/12/17 05:16:09;;;;;;;19.70;10.63;;;2.20;91.70;;;;;;5053272;28;20313;-74
2020/12/17 05:18:35;;;;;;;19.15;9.43;;;2.20;91.60;;;;;;5037546;28;20029;-74
2020/12/17 05:21:01;;;;;;;18.13;9.65;;;2.20;91.70;;;;;;5051579;28;20031;-72
2020/12/17 05:23:28;;;;;;;18.70;10.73;;;2.20;91.50;;;;;;5038588;28;20392;-74
2020/12/17 05:25:55;;;;;;;25.48;14.13;;;2.30;91.70;;;;;;5052723;28;20376;-75
2020/12/17 05:28:21;;;;;;;19.70;11.13;;;2.30;91.70;;;;;;5051412;28;20033;-73
2020/12/17 05:30:47;;;;;;;24.10;13.10;;;2.40;91.70;;;;;;5052825;28;20025;-73
2020/12/17 05:33:14;;;;;;;35.15;16.42;;;2.40;91.70;;;;;;5052793;28;20051;-73
2020/12/17 05:35:41;;;;;;;44.65;21.92;;;2.40;91.50;;;;;;5052919;28;20172;-74
2020/12/17 05:38:10;;;;;;;41.03;22.67;;;2.50;91.60;;;;;;5050900;28;20033;-74
2020/12/17 05:40:43;;;;;;;52.30;27.00;;;2.50;91.50;;;;;;5050917;28;20024;-74
2020/12/17 05:43:10;;;;;;;56.33;29.85;;;2.50;91.50;;;;;;5051881;28;20035;-74
2020/12/17 05:45:36;;;;;;;63.42;33.88;;;2.50;91.40;;;;;;5053526;28;20100;-74
2020/12/17 05:48:15;;;;;;;48.70;27.48;;;2.50;91.30;;;;;;5052253;28;20028;-74
2020/12/17 05:50:58;;;;;;;43.00;24.02;;;2.60;91.40;;;;;;5052801;28;20106;-75
2020/12/17 05:53:26;;;;;;;42.42;21.45;;;2.50;91.40;;;;;;5043644;28;20026;-75
2020/12/17 05:56:00;;;;;;;42.05;20.92;;;2.50;91.30;;;;;;5042702;28;20026;-74
2020/12/17 05:58:44;;;;;;;45.70;23.42;;;2.50;91.40;;;;;;5046233;28;20514;-74
2020/12/17 06:01:12;;;;;;;51.03;26.63;;;2.50;91.40;;;;;;5054407;28;20040;-73
2020/12/17 06:03:40;;;;;;;57.80;26.45;;;2.50;91.40;;;;;;5052786;28;20052;-74
2020/12/17 06:06:07;;;;;;;51.90;24.45;;;2.50;91.30;;;;;;5052858;28;20025;-73
2020/12/17 06:08:36;;;;;;;45.13;22.77;;;2.50;91.40;;;;;;5042271;28;20125;-74
2020/12/17 06:11:08;;;;;;;43.60;20.95;;;2.50;91.40;;;;;;5052640;28;20117;-75
2020/12/17 06:13:37;;;;;;;36.30;17.17;;;2.50;91.40;;;;;;5048955;28;20056;-73
2020/12/17 06:16:05;;;;;;;38.72;16.17;;;2.50;91.50;;;;;;5047491;28;20028;-74
2020/12/17 06:18:39;;;;;;;57.97;16.92;;;2.50;91.80;;;;;;5045358;28;20025;-74
2020/12/17 06:21:09;;;;;;;82.18;18.10;;;2.50;91.60;;;;;;5049137;28;20521;-74
2020/12/17 06:23:37;;;;;;;90.10;18.45;;;2.60;91.60;;;;;;5037247;28;20476;-75
2020/12/17 06:26:09;;;;;;;69.45;19.85;;;2.60;91.60;;;;;;5041508;28;20071;-76
2020/12/17 06:28:54;;;;;;;125.05;25.67;;;2.70;91.60;;;;;;5057646;28;20072;-79
2020/12/17 06:31:26;;;;;;;203.73;38.13;;;2.80;91.60;;;;;;5056084;28;20047;-78
2020/12/17 06:34:06;;;;;;;176.50;33.53;;;2.80;91.50;;;;;;5056180;28;20039;-77
2020/12/17 06:36:44;;;;;;;171.70;35.13;;;2.80;91.50;;;;;;5052690;28;20036;-75
2020/12/17 06:39:09;;;;;;;163.85;32.97;;;2.70;91.30;;;;;;5041316;28;20102;-76
2020/12/17 06:41:36;;;;;;;188.23;37.05;;;2.80;91.60;;;;;;5040937;28;20025;-76
2020/12/17 06:44:31;;;;;;;182.52;42.05;;;2.80;91.70;;;;;;5037246;28;20103;-77
2020/12/17 06:47:02;;;;;;;195.33;38.90;;;2.80;91.60;;;;;;5043948;28;20026;-75
2020/12/17 06:49:30;;;;;;;157.77;34.88;;;2.80;91.40;;;;;;5044161;28;20279;-73
2020/12/17 06:52:07;;;;;;;133.88;32.33;;;2.80;91.70;;;;;;5040375;28;20108;-75
2020/12/17 06:54:41;;;;;;;117.60;28.58;;;2.80;91.50;;;;;;5040192;28;20084;-76
2020/12/17 06:57:14;;;;;;;126.32;32.83;;;2.80;91.50;;;;;;5051298;28;20028;-76
2020/12/17 07:00:06;;;;;;;57.65;21.17;;;2.90;91.70;;;;;;5042253;28;20041;-76
2020/12/17 07:02:50;;;;;;;57.35;19.77;;;2.90;91.40;;;;;;5043450;28;20136;-75
2020/12/17 07:05:30;;;;;;;44.78;16.08;;;2.80;91.20;;;;;;5041534;28;20071;-77
2020/12/17 07:07:55;;;;;;;34.03;15.38;;;2.90;91.40;;;;;;5039918;28;20057;-77
2020/12/17 07:10:29;;;;;;;38.00;15.55;;;2.80;91.20;;;;;;5048414;28;20056;-76
2020/12/17 07:12:55;;;;;;;32.13;15.13;;;2.80;91.30;;;;;;5047126;28;20108;-76
2020/12/17 07:15:37;;;;;;;37.08;15.45;;;2.80;91.40;;;;;;5046077;28;20120;-72
2020/12/17 07:18:23;;;;;;;48.83;22.75;;;2.90;91.40;;;;;;5046245;28;20407;-72
2020/12/17 07:21:06;;;;;;;46.10;21.60;;;2.90;91.20;;;;;;5045444;28;20106;-80
2020/12/17 07:23:37;;;;;;;34.40;15.57;;;2.90;91.20;;;;;;5041174;28;20406;-74
2020/12/17 07:26:08;;;;;;;35.38;15.95;;;2.80;91.40;;;;;;5043372;28;20544;-76
2020/12/17 07:28:35;;;;;;;56.53;22.73;;;2.90;91.50;;;;;;5040046;28;20099;-76
2020/12/17 07:31:00;;;;;;;57.72;23.17;;;2.90;91.30;;;;;;5042486;28;20040;-78
2020/12/17 07:33:38;;;;;;;77.70;27.63;;;2.90;91.20;;;;;;5039176;28;21287;-76
2020/12/17 07:36:04;;;;;;;75.55;29.30;;;2.90;91.00;;;;;;5040616;28;20021;-79
2020/12/17 07:38:31;;;;;;;74.45;28.63;;;2.80;90.90;;;;;;5055409;28;20482;-78
2020/12/17 07:40:57;;;;;;;95.57;32.50;;;2.90;91.00;;;;;;5049259;28;20183;-79
2020/12/17 07:43:24;;;;;;;112.75;41.47;;;2.80;90.80;;;;;;5051991;28;20036;-77
2020/12/17 07:45:50;;;;;;;124.85;43.95;;;2.80;90.70;;;;;;5055120;28;20025;-75
2020/12/17 07:48:36;;;;;;;133.02;44.28;;;2.70;90.70;;;;;;5046217;28;20025;-79
2020/12/17 07:51:22;;;;;;;117.60;43.28;;;2.70;91.00;;;;;;5047131;28;20554;-77
2020/12/17 07:53:49;;;;;;;88.47;33.03;;;2.80;91.10;;;;;;5049918;28;20056;-78
2020/12/17 07:56:16;;;;;;;78.00;31.27;;;2.80;91.10;;;;;;5053630;28;20026;-78
2020/12/17 07:58:43;;;;;;;60.67;25.50;;;2.80;91.00;;;;;;5058658;28;20467;-79
2020/12/17 08:01:10;;;;;;;73.68;25.23;;;2.80;91.00;;;;;;5051976;28;20037;-76
2020/12/17 08:03:49;;;;;;;70.38;28.17;;;2.80;90.90;;;;;;5053833;28;20033;-78
2020/12/17 08:06:20;;;;;;;78.07;28.65;;;2.80;91.00;;;;;;5064671;28;20033;-77
2020/12/17 08:08:57;;;;;;;60.63;25.83;;;2.80;91.10;;;;;;5066501;28;20379;-78
2020/12/17 08:11:25;;;;;;;64.70;23.98;;;2.80;91.10;;;;;;5059890;28;20025;-78
2020/12/17 08:14:02;;;;;;;55.00;20.75;;;2.80;91.10;;;;;;5057449;28;20059;-78
2020/12/17 08:16:29;;;;;;;43.55;20.25;;;2.90;91.30;;;;;;5053340;28;20378;-79
2020/12/17 08:18:56;;;;;;;45.00;19.98;;;3.00;91.30;;;;;;5053761;28;20075;-78
2020/12/17 08:21:24;;;;;;;36.25;15.70;;;3.00;91.20;;;;;;5051058;28;20032;-78
2020/12/17 08:23:50;;;;;;;40.08;17.50;;;3.00;91.10;;;;;;5051238;28;20032;-77
2020/12/17 08:26:27;;;;;;;59.97;21.35;;;3.00;91.10;;;;;;5053572;28;20029;-76
2020/12/17 08:28:53;;;;;;;42.55;18.73;;;3.00;91.10;;;;;;5048398;28;20032;-78
2020/12/17 08:31:24;;;;;;;73.20;26.15;;;3.00;91.10;;;;;;5051756;28;20025;-80
2020/12/17 08:33:55;;;;;;;81.57;31.52;;;3.10;91.10;;;;;;5053848;28;20029;-78
2020/12/17 08:36:24;;;;;;;94.35;39.42;;;3.10;90.90;;;;;;5052467;28;20085;-77
2020/12/17 08:39:07;;;;;;;116.80;48.05;;;3.10;90.60;;;;;;5053419;28;20021;-77
2020/12/17 08:41:42;;;;;;;150.60;59.45;;;3.10;90.50;;;;;;5052026;28;20081;-78
2020/12/17 08:44:09;;;;;;;101.65;38.05;;;3.00;90.50;;;;;;5053386;28;20033;-79
2020/12/17 08:46:39;;;;;;;168.75;61.28;;;3.00;90.90;;;;;;5052540;28;20036;-79
2020/12/17 08:49:13;;;;;;;382.35;129.05;;;3.00;90.90;;;;;;5052670;28;20021;-78
2020/12/17 08:51:47;;;;;;;349.33;116.78;;;3.00;90.80;;;;;;5052705;28;20463;-78
2020/12/17 08:54:36;;;;;;;393.33;145.00;;;3.00;90.60;;;;;;5053017;28;20123;-79
2020/12/17 08:57:13;;;;;;;357.23;125.85;;;3.00;90.70;;;;;;5033222;28;20443;-78
2020/12/17 08:59:42;;;;;;;368.73;140.27;;;3.00;91.10;;;;;;5044242;28;20088;-79
2020/12/17 09:02:08;;;;;;;435.23;169.10;;;3.10;91.00;;;;;;5051327;28;20091;-78
2020/12/17 09:04:34;;;;;;;566.72;228.57;;;3.10;91.10;;;;;;5052056;28;20056;-78
2020/12/17 09:07:01;;;;;;;515.78;173.10;;;3.20;91.30;;;;;;5053229;28;20028;-80
2020/12/17 09:09:29;;;;;;;537.40;165.88;;;3.20;91.00;;;;;;5052142;28;20036;-78
2020/12/17 09:11:59;;;;;;;501.05;196.05;;;3.20;90.90;;;;;;5055192;28;20032;-79
2020/12/17 09:14:32;;;;;;;411.58;169.40;;;3.20;90.70;;;;;;5053816;28;20434;-79
2020/12/17 09:17:12;;;;;;;301.48;123.00;;;3.20;90.90;;;;;;5052007;28;20021;-77
2020/12/17 09:19:39;;;;;;;278.98;111.57;;;3.20;90.70;;;;;;5051874;28;20059;-78
2020/12/17 09:22:04;;;;;;;303.83;119.35;;;3.20;90.60;;;;;;5048263;28;20467;-78
2020/12/17 09:24:39;;;;;;;223.70;95.18;;;3.20;90.60;;;;;;5038647;28;20159;-79
2020/12/17 09:27:23;;;;;;;198.63;83.78;;;3.20;90.70;;;;;;5050835;28;20045;-79
2020/12/17 09:30:07;;;;;;;187.57;79.80;;;3.20;91.00;;;;;;5052023;28;20025;-80
2020/12/17 09:32:35;;;;;;;175.32;73.35;;;3.30;91.20;;;;;;5052816;28;20086;-80
2020/12/17 09:35:14;;;;;;;163.48;63.72;;;3.30;91.30;;;;;;5053060;28;20024;-79
2020/12/17 09:37:42;;;;;;;119.57;47.60;;;3.40;91.20;;;;;;5053156;28;20032;-80
2020/12/17 09:40:09;;;;;;;95.75;35.42;;;3.40;91.30;;;;;;5052875;28;20539;-79
2020/12/17 09:42:35;;;;;;;84.68;34.50;;;3.50;91.40;;;;;;5051433;28;20033;-78
2020/12/17 09:45:19;;;;;;;64.55;27.27;;;3.60;91.60;;;;;;5052858;28;20024;-78
2020/12/17 09:47:45;;;;;;;53.88;24.45;;;3.70;91.40;;;;;;5051366;28;20052;-80
2020/12/17 09:50:16;;;;;;;50.10;22.70;;;3.80;91.30;;;;;;5051733;28;20374;-78
2020/12/17 09:52:43;;;;;;;42.28;20.83;;;3.80;91.40;;;;;;5051533;28;20115;-79
2020/12/17 09:55:11;;;;;;;33.75;18.45;;;3.90;91.40;;;;;;5046484;28;20121;-79
2020/12/17 09:57:43;;;;;;;34.42;19.00;;;4.00;91.30;;;;;;5040753;28;20383;-77
2020/12/17 10:00:11;;;;;;;37.50;19.70;;;4.00;91.20;;;;;;5051082;28;20032;-80
2020/12/17 10:02:39;;;;;;;30.02;18.10;;;4.10;91.20;;;;;;5054010;28;20046;-79
2020/12/17 10:05:06;;;;;;;32.78;18.95;;;4.10;91.20;;;;;;5053851;28;20018;-78
2020/12/17 10:07:32;;;;;;;35.00;20.35;;;4.20;90.90;;;;;;5056745;28;20144;-78
2020/12/17 10:09:58;;;;;;;47.58;26.60;;;4.20;90.80;;;;;;5064802;28;20025;-78
2020/12/17 10:12:24;;;;;;;65.88;31.90;;;4.20;90.80;;;;;;5061508;28;20460;-79
2020/12/17 10:14:50;;;;;;;63.13;33.28;;;4.20;90.80;;;;;;5061380;28;20035;-78
2020/12/17 10:17:16;;;;;;;67.65;37.58;;;4.30;90.80;;;;;;5061792;28;20463;-79
2020/12/17 10:19:44;;;;;;;58.88;33.50;;;4.20;90.70;;;;;;5074256;28;20036;-76
2020/12/17 10:22:24;;;;;;;65.18;34.30;;;4.30;90.60;;;;;;5068953;28;20037;-78
2020/12/17 10:24:55;;;;;;;63.42;30.55;;;4.20;90.40;;;;;;5056321;28;20107;-78
2020/12/17 10:27:21;;;;;;;69.75;32.60;;;4.20;90.60;;;;;;5055088;28;20025;-78
2020/12/17 10:29:47;;;;;;;69.85;33.00;;;4.20;90.80;;;;;;5055447;28;20120;-79
2020/12/17 10:32:14;;;;;;;68.97;34.85;;;4.30;90.60;;;;;;5057349;28;20416;-78
2020/12/17 10:34:40;;;;;;;59.42;28.50;;;4.20;90.40;;;;;;5055339;28;20393;-78
2020/12/17 10:37:07;;;;;;;48.67;25.80;;;4.20;90.40;;;;;;5055383;28;20025;-78
2020/12/17 10:39:32;;;;;;;50.53;25.63;;;4.30;90.50;;;;;;5055639;28;20023;-78
2020/12/17 10:42:01;;;;;;;46.15;24.30;;;4.30;90.50;;;;;;5055324;28;20107;-79
2020/12/17 10:44:27;;;;;;;42.20;22.02;;;4.30;90.50;;;;;;5055980;28;20112;-79
2020/12/17 10:46:53;;;;;;;38.13;21.08;;;4.30;90.30;;;;;;5055156;28;20127;-78
2020/12/17 10:49:18;;;;;;;34.15;19.50;;;4.20;90.30;;;;;;5056195;28;20025;-79
2020/12/17 10:51:44;;;;;;;38.95;21.70;;;4.20;90.20;;;;;;5055749;28;20021;-76
2020/12/17 10:54:10;;;;;;;39.67;22.20;;;4.20;90.20;;;;;;5056521;28;20036;-79
2020/12/17 10:56:36;;;;;;;45.00;23.65;;;4.10;90.10;;;;;;5054447;28;20419;-78
2020/12/17 10:59:02;;;;;;;40.28;22.40;;;4.10;90.10;;;;;;5055968;28;20123;-79
2020/12/17 11:01:28;;;;;;;43.88;23.92;;;4.10;90.40;;;;;;5056452;28;20131;-79
2020/12/17 11:03:54;;;;;;;48.22;25.95;;;4.10;90.10;;;;;;5054803;28;20498;-77
2020/12/17 11:06:23;;;;;;;55.40;29.58;;;4.10;90.20;;;;;;5055303;28;20029;-78
2020/12/17 11:08:49;;;;;;;58.90;32.50;;;4.10;90.20;;;;;;5040664;28;20025;-77
2020/12/17 11:11:16;;;;;;;50.20;26.67;;;4.00;90.10;;;;;;5054049;28;20072;-78
2020/12/17 11:13:42;;;;;;;44.97;25.20;;;4.00;89.40;;;;;;5055869;28;20029;-79
2020/12/17 11:16:08;;;;;;;45.78;24.75;;;3.90;89.20;;;;;;5054764;28;20384;-79
2020/12/17 11:18:33;;;;;;;42.90;25.23;;;3.80;89.10;;;;;;5055396;28;20112;-77
2020/12/17 11:20:59;;;;;;;34.35;20.13;;;3.80;89.50;;;;;;5054274;28;20025;-78
2020/12/17 11:23:25;;;;;;;39.45;22.35;;;3.70;89.30;;;;;;5055304;28;20041;-78
2020/12/17 11:25:51;;;;;;;44.35;25.13;;;3.60;89.50;;;;;;5055227;28;20024;-80
2020/12/17 11:28:17;;;;;;;42.08;23.52;;;3.60;89.70;;;;;;5054233;28;20025;-76
2020/12/17 11:30:42;;;;;;;36.58;20.80;;;3.60;89.90;;;;;;5053811;28;20021;-79
2020/12/17 11:33:08;;;;;;;36.05;19.85;;;3.50;89.90;;;;;;5055047;28;20123;-76
2020/12/17 11:35:34;;;;;;;33.45;17.80;;;3.50;89.60;;;;;;5054114;28;20027;-79
2020/12/17 11:38:00;;;;;;;38.28;20.25;;;3.50;89.70;;;;;;5054183;28;20386;-76
2020/12/17 11:40:26;;;;;;;34.17;19.10;;;3.50;89.70;;;;;;5053922;28;20025;-78
2020/12/17 11:42:52;;;;;;;39.03;19.80;;;3.40;89.50;;;;;;5053657;28;20498;-78
2020/12/17 11:45:18;;;;;;;31.60;17.35;;;3.40;89.90;;;;;;5054118;28;20017;-79
2020/12/17 11:47:44;;;;;;;32.75;17.20;;;3.40;90.10;;;;;;5053539;28;20036;-76
2020/12/17 11:50:10;;;;;;;36.30;19.02;;;3.40;90.30;;;;;;5055465;28;20028;-78
2020/12/17 11:52:37;;;;;;;33.55;19.25;;;3.50;90.40;;;;;;5054219;28;20475;-79
2020/12/17 11:55:07;;;;;;;34.72;17.95;;;3.60;90.60;;;;;;5054493;28;20049;-77
2020/12/17 11:57:34;;;;;;;32.13;17.17;;;3.60;90.70;;;;;;5057121;28;20021;-78
2020/12/17 12:00:00;;;;;;;40.17;21.55;;;3.70;90.90;;;;;;5056156;28;20033;-78
2020/12/17 12:02:26;;;;;;;36.08;20.88;;;3.90;90.80;;;;;;5056230;28;20049;-79
2020/12/17 12:04:52;;;;;;;37.47;20.95;;;3.90;90.80;;;;;;5056039;28;20029;-76
2020/12/17 12:07:18;;;;;;;37.08;20.85;;;4.00;90.80;;;;;;5055523;28;20023;-76
2020/12/17 12:09:44;;;;;;;41.13;21.65;;;4.00;90.80;;;;;;5054664;28;20092;-78
2020/12/17 12:12:09;;;;;;;39.72;22.27;;;4.10;90.70;;;;;;5058074;28;20040;-78
2020/12/17 12:14:37;;;;;;;42.90;23.50;;;4.10;90.60;;;;;;5047704;28;20459;-77
2020/12/17 12:17:03;;;;;;;49.70;27.55;;;4.10;90.70;;;;;;5052097;28;20059;-78
2020/12/17 12:19:28;;;;;;;48.38;25.55;;;4.20;90.60;;;;;;5052674;28;20499;-78
2020/12/17 12:21:54;;;;;;;45.83;24.75;;;4.20;90.40;;;;;;5052520;28;20387;-79
2020/12/17 12:24:20;;;;;;;46.78;25.55;;;4.20;90.30;;;;;;5054748;28;20158;-77
2020/12/17 12:26:47;;;;;;;46.65;23.85;;;4.20;90.10;;;;;;5060960;28;20462;-77
2020/12/17 12:29:13;;;;;;;54.42;26.85;;;4.10;89.50;;;;;;5058849;28;20047;-79
2020/12/17 12:31:38;;;;;;;45.65;27.65;;;4.00;89.20;;;;;;5067998;28;20029;-77
2020/12/17 12:34:04;;;;;;;41.55;23.50;;;4.00;89.40;;;;;;5060326;28;20021;-77
2020/12/17 12:36:30;;;;;;;46.30;26.27;;;3.90;89.70;;;;;;5056384;28;20032;-78
2020/12/17 12:38:56;;;;;;;43.95;23.05;;;3.80;89.80;;;;;;5053323;28;20520;-78
2020/12/17 12:41:22;;;;;;;43.55;22.48;;;3.80;89.80;;;;;;5054393;28;20463;-78
2020/12/17 12:43:48;;;;;;;44.45;24.08;;;3.80;90.10;;;;;;5054210;28;20029;-79